Time;durP1;ratioP1;P1;durP2;ratioP2;P2;SDS_P1;SDS_P2;PMS_P1;PMS_P2;Temp;Humidity;BMP_temperature;BMP_pressure;BME280_temperature;BME280_humidity;BME280_pressure;Samples;Min_cycle;Max_cycle;Signal;HPM_P1;HPM_P2
2023/04/02 00:00:15;;;;;;;10.03;6.43;;;;;;;-142.75;100.00;77345.94;4977964;28;20500;-65
2023/04/02 00:02:57;;;;;;;11.17;6.70;;;;;;;-142.75;100.00;77365.63;4974251;28;20050;-66
2023/04/02 00:05:29;;;;;;;10.77;5.93;;;;;;;-142.75;100.00;77357.75;4977613;28;20026;-65
2023/04/02 00:07:57;;;;;;;9.87;5.60;;;;;;;-142.75;100.00;77355.78;4978315;28;20025;-65
2023/04/02 00:10:37;;;;;;;9.23;5.00;;;;;;;-142.75;100.00;77365.63;4973047;28;20360;-65
2023/04/02 00:13:05;;;;;;;9.30;5.50;;;;;;;-142.75;100.00;77373.50;4972773;28;20529;-66
2023/04/02 00:15:31;;;;;;;10.13;6.27;;;;;;;-142.75;100.00;77399.09;4975454;28;20050;-66
2023/04/02 00:17:57;;;;;;;10.20;6.13;;;;;;;-142.75;100.00;77397.13;4973688;28;20525;-66
2023/04/02 00:20:26;;;;;;;13.60;5.77;;;;;;;-142.75;100.00;77385.31;4981160;28;20487;-66
2023/04/02 00:22:53;;;;;;;9.80;6.30;;;;;;;-142.75;100.00;77373.50;4978746;28;20035;-66
2023/04/02 00:25:19;;;;;;;10.63;5.80;;;;;;;-142.75;100.00;77395.16;4979346;28;20023;-66
2023/04/02 00:27:44;;;;;;;10.07;5.97;;;;;;;-142.75;100.00;77397.13;4998584;28;20498;-63
2023/04/02 00:30:12;;;;;;;9.80;5.80;;;;;;;-142.75;100.00;77383.34;4977582;28;20023;-64
2023/04/02 00:32:38;;;;;;;11.57;6.38;;;;;;;-142.75;100.00;77389.25;4980051;28;20089;-63
2023/04/02 00:35:29;;;;;;;11.67;6.90;;;;;;;-142.75;100.00;77405.00;4982480;28;20030;-63
2023/04/02 00:37:56;;;;;;;11.37;6.27;;;;;;;-142.75;100.00;77420.75;4982075;28;20085;-65
2023/04/02 00:40:30;;;;;;;15.07;6.97;;;;;;;-142.75;100.00;77403.03;4982126;28;20019;-65
2023/04/02 00:42:58;;;;;;;17.57;7.03;;;;;;;-142.75;100.00;77401.06;4981443;28;20034;-65
2023/04/02 00:45:30;;;;;;;12.10;6.50;;;;;;;-142.75;100.00;77434.53;4981702;28;20033;-65
2023/04/02 00:47:58;;;;;;;14.67;7.30;;;;;;;-142.75;100.00;77434.53;4981305;28;20089;-65
2023/04/02 00:50:30;;;;;;;13.33;6.50;;;;;;;-142.75;100.00;77464.09;4981878;28;20025;-64
2023/04/02 00:52:57;;;;;;;14.23;6.87;;;;;;;-142.75;100.00;77448.34;4983598;28;20077;-66
2023/04/02 00:55:38;;;;;;;12.83;7.20;;;;;;;-142.75;100.00;77456.22;4973812;28;20070;-64
2023/04/02 00:58:16;;;;;;;13.90;7.57;;;;;;;-142.75;100.00;77466.03;4980263;28;20037;-66
2023/04/02 01:00:48;;;;;;;11.40;6.68;;;;;;;-142.75;100.00;77471.97;4982924;28;20037;-65
2023/04/02 01:03:17;;;;;;;15.60;7.20;;;;;;;-142.75;100.00;77475.91;4991253;28;20394;-66
2023/04/02 01:05:49;;;;;;;13.87;6.77;;;;;;;-142.75;100.00;77509.38;4992099;28;20030;-66
2023/04/02 01:08:28;;;;;;;10.60;7.20;;;;;;;-142.75;100.00;77525.13;4992164;28;20036;-66
2023/04/02 01:11:28;;;;;;;11.50;6.30;;;;;;;-142.75;100.00;77499.53;4992126;28;20030;-66
2023/04/02 01:14:01;;;;;;;14.53;6.87;;;;;;;-142.75;100.00;77525.13;4992205;28;20037;-65
2023/04/02 01:16:30;;;;;;;13.13;6.63;;;;;;;-142.75;100.00;77534.97;4992006;28;20026;-66
2023/04/02 01:19:06;;;;;;;11.50;7.13;;;;;;;-142.75;100.00;77527.09;4991892;28;20109;-66
2023/04/02 01:21:31;;;;;;;12.52;6.53;;;;;;;-142.75;100.00;77546.78;4991902;28;20597;-66
2023/04/02 01:24:04;;;;;;;11.07;6.43;;;;;;;-142.75;100.00;77578.28;4991984;28;20022;-66
2023/04/02 01:26:45;;;;;;;14.23;7.10;;;;;;;-142.75;100.00;77540.88;4991859;28;20029;-66
2023/04/02 01:29:33;;;;;;;15.53;6.83;;;;;;;-142.75;100.00;77550.72;4991975;28;20085;-66
2023/04/02 01:32:06;;;;;;;12.60;6.83;;;;;;;-142.75;100.00;77538.91;4991793;28;20023;-66
2023/04/02 01:34:32;;;;;;;12.33;6.40;;;;;;;-142.75;100.00;77538.91;4991819;28;20556;-66
2023/04/02 01:37:06;;;;;;;15.33;7.27;;;;;;;-142.75;100.00;77562.53;4991961;28;20109;-66
2023/04/02 01:39:32;;;;;;;10.50;5.47;;;;;;;-142.75;100.00;77582.22;4991748;28;20129;-66
2023/04/02 01:42:36;;;;;;;13.50;6.50;;;;;;;-142.75;100.00;77601.91;4991642;28;20097;-66
2023/04/02 01:45:08;;;;;;;11.20;6.10;;;;;;;-142.75;100.00;77621.59;4991645;28;20018;-66
2023/04/02 01:47:33;;;;;;;12.63;5.47;;;;;;;-142.75;100.00;77639.31;4991712;28;20034;-66
2023/04/02 01:50:15;;;;;;;10.50;5.33;;;;;;;-142.75;100.00;77651.13;4993873;28;20081;-66
2023/04/02 01:52:43;;;;;;;13.63;6.87;;;;;;;-142.75;100.00;77672.78;4995306;28;20398;-66
2023/04/02 01:55:11;;;;;;;12.87;6.50;;;;;;;-142.75;100.00;77684.59;4995108;28;20084;-66
2023/04/02 01:57:41;;;;;;;8.60;4.60;;;;;;;-142.75;100.00;77698.38;4995125;28;20436;-66
2023/04/02 02:00:11;;;;;;;10.43;5.27;;;;;;;-142.75;100.00;77696.41;4995113;28;20026;-66
2023/04/02 02:02:37;;;;;;;9.10;4.97;;;;;;;-142.75;100.00;77706.25;4995024;28;20019;-66
2023/04/02 02:05:03;;;;;;;12.63;7.37;;;;;;;-142.75;100.00;77702.31;4995001;28;20045;-66
2023/04/02 02:07:29;;;;;;;12.70;6.67;;;;;;;-142.75;100.00;77712.16;4994992;28;20478;-67
2023/04/02 02:09:54;;;;;;;13.27;6.40;;;;;;;-142.75;100.00;77696.41;4995008;28;20018;-66
2023/04/02 02:12:21;;;;;;;12.30;6.13;;;;;;;-142.75;100.00;77686.56;4994920;28;20045;-66
2023/04/02 02:14:51;;;;;;;12.13;6.33;;;;;;;-142.75;100.00;77696.41;4994908;28;20014;-66
2023/04/02 02:17:26;;;;;;;10.87;6.00;;;;;;;-142.75;100.00;77684.59;4993689;28;20394;-66
2023/04/02 02:19:55;;;;;;;13.40;5.83;;;;;;;-142.75;100.00;77684.59;4994849;28;20061;-66
2023/04/02 02:22:34;;;;;;;11.03;5.90;;;;;;;-142.75;100.00;77686.56;4994633;28;20022;-67
2023/04/02 02:25:04;;;;;;;9.70;5.80;;;;;;;-142.75;100.00;77716.09;4994620;28;20081;-66
2023/04/02 02:27:47;;;;;;;11.23;6.03;;;;;;;-142.75;100.00;77735.81;4994668;28;20018;-66
2023/04/02 02:30:20;;;;;;;11.77;6.80;;;;;;;-142.75;100.00;77751.56;4994723;28;20023;-66
2023/04/02 02:32:51;;;;;;;8.57;4.80;;;;;;;-142.75;100.00;77755.50;4994625;28;20034;-65
2023/04/02 02:35:37;;;;;;;12.17;6.13;;;;;;;-142.75;100.00;77739.75;4994434;28;20064;-66
2023/04/02 02:38:30;;;;;;;9.77;5.40;;;;;;;-142.75;100.00;77747.63;4994380;28;20026;-66
2023/04/02 02:41:00;;;;;;;10.60;5.90;;;;;;;-142.75;100.00;77755.50;4994426;28;20105;-66
2023/04/02 02:43:26;;;;;;;8.70;5.47;;;;;;;-142.75;100.00;77753.53;4993151;28;20054;-66
2023/04/02 02:45:54;;;;;;;13.30;6.57;;;;;;;-142.75;100.00;77783.06;4994322;28;20042;-66
2023/04/02 02:48:25;;;;;;;9.73;5.87;;;;;;;-142.75;100.00;77787.00;4994294;28;20550;-66
2023/04/02 02:50:53;;;;;;;13.33;6.50;;;;;;;-142.75;100.00;77781.09;4994313;28;20018;-66
2023/04/02 02:53:23;;;;;;;14.37;6.23;;;;;;;-142.75;100.00;77787.00;4994175;28;20026;-67
2023/04/02 02:55:55;;;;;;;9.30;5.90;;;;;;;-142.75;100.00;77749.59;4994138;28;20029;-66
2023/04/02 02:58:27;;;;;;;11.63;5.87;;;;;;;-142.75;100.00;77737.78;4992785;28;20026;-66
2023/04/02 03:00:53;;;;;;;11.30;5.83;;;;;;;-142.75;100.00;77747.63;4993107;28;20495;-67
2023/04/02 03:03:26;;;;;;;11.47;5.47;;;;;;;-142.75;100.00;77743.69;4993900;28;20067;-66
2023/04/02 03:05:55;;;;;;;9.20;5.63;;;;;;;-142.75;100.00;77745.66;4993939;28;20027;-67
2023/04/02 03:08:28;;;;;;;7.80;5.30;;;;;;;-142.75;100.00;77763.38;4993898;28;20092;-66
2023/04/02 03:11:09;;;;;;;12.60;5.83;;;;;;;-142.75;100.00;77755.50;4993918;28;20030;-67
2023/04/02 03:13:38;;;;;;;13.37;5.87;;;;;;;-142.75;100.00;77759.44;4993778;28;20022;-66
2023/04/02 03:16:37;;;;;;;13.53;6.40;;;;;;;-142.75;100.00;77783.06;4993678;28;20622;-66
2023/04/02 03:19:27;;;;;;;9.43;4.70;;;;;;;-142.75;100.00;77853.94;4993643;28;20101;-66
2023/04/02 03:22:13;;;;;;;11.47;5.93;;;;;;;-142.75;100.00;77877.56;4993580;28;20026;-66
2023/04/02 03:24:59;;;;;;;10.53;5.20;;;;;;;-142.75;100.00;77885.44;4993610;28;20022;-66
2023/04/02 03:27:30;;;;;;;8.90;5.50;;;;;;;-142.75;100.00;77885.44;4993479;28;20270;-66
2023/04/02 03:30:20;;;;;;;11.13;5.87;;;;;;;-142.75;100.00;77913.03;4993661;28;20026;-66
2023/04/02 03:32:50;;;;;;;9.43;4.67;;;;;;;-142.75;100.00;77938.63;4993395;28;20102;-66
2023/04/02 03:35:25;;;;;;;12.40;5.63;;;;;;;-142.75;100.00;77940.59;4992105;28;20022;-66
2023/04/02 03:37:58;;;;;;;9.50;5.40;;;;;;;-142.75;100.00;77936.66;4993210;28;20034;-66
2023/04/02 03:40:33;;;;;;;11.57;5.97;;;;;;;-142.75;100.00;77905.13;4992055;28;20022;-67
2023/04/02 03:43:05;;;;;;;12.10;6.50;;;;;;;-142.75;100.00;77893.31;4993348;28;20031;-66
2023/04/02 03:45:40;;;;;;;13.73;5.97;;;;;;;-142.75;100.00;77913.03;4993260;28;20430;-67
2023/04/02 03:48:30;;;;;;;8.90;5.63;;;;;;;-142.75;100.00;77932.72;4993144;28;20030;-67
2023/04/02 03:51:13;;;;;;;9.13;4.67;;;;;;;-142.75;100.00;77950.44;4991934;28;20062;-66
2023/04/02 03:53:39;;;;;;;11.27;5.60;;;;;;;-142.75;100.00;77968.16;4993016;28;20099;-66
2023/04/02 03:56:05;;;;;;;13.13;5.87;;;;;;;-142.75;100.00;77964.22;4992932;28;20498;-66
2023/04/02 03:58:38;;;;;;;9.57;5.63;;;;;;;-142.75;100.00;77966.19;4992961;28;20084;-66
2023/04/02 04:01:23;;;;;;;13.77;6.50;;;;;;;-142.75;100.00;77954.38;4992957;28;20030;-67
2023/04/02 04:03:54;;;;;;;11.97;5.27;;;;;;;-142.75;100.00;77968.16;4992873;28;20033;-66
2023/04/02 04:06:26;;;;;;;10.53;5.37;;;;;;;-142.75;100.00;77979.97;4992800;28;20433;-66
2023/04/02 04:08:59;;;;;;;9.20;5.90;;;;;;;-142.75;100.00;77958.31;4991486;28;20029;-66
2023/04/02 04:11:31;;;;;;;11.17;5.67;;;;;;;-142.75;100.00;77964.22;4992739;28;20054;-66
2023/04/02 04:14:12;;;;;;;9.43;6.13;;;;;;;-142.75;100.00;77962.25;4990659;28;20064;-67
2023/04/02 04:16:52;;;;;;;11.77;6.00;;;;;;;-142.75;100.00;77974.06;4992663;28;20026;-67
2023/04/02 04:19:31;;;;;;;10.70;5.90;;;;;;;-142.75;100.00;77958.31;4992613;28;20379;-66
2023/04/02 04:22:17;;;;;;;9.20;6.07;;;;;;;-142.75;100.00;77978.00;4991257;28;20041;-67
2023/04/02 04:24:44;;;;;;;10.20;5.70;;;;;;;-142.75;100.00;77981.94;4992458;28;20418;-67
2023/04/02 04:27:34;;;;;;;10.53;6.17;;;;;;;-142.75;100.00;77976.03;4992591;28;20049;-67
2023/04/02 04:30:05;;;;;;;11.83;6.20;;;;;;;-142.75;100.00;78039.03;4992678;28;20363;-67
2023/04/02 04:32:48;;;;;;;11.97;6.33;;;;;;;-142.75;100.00;78033.13;4992437;28;20034;-67
2023/04/02 04:35:14;;;;;;;11.00;6.00;;;;;;;-142.75;100.00;78031.16;4991145;28;20040;-67
2023/04/02 04:37:42;;;;;;;12.43;6.37;;;;;;;-142.75;100.00;78017.38;4992251;28;20109;-66
2023/04/02 04:40:10;;;;;;;10.23;6.20;;;;;;;-142.75;100.00;78035.09;4992422;28;20438;-67
2023/04/02 04:42:40;;;;;;;10.93;6.13;;;;;;;-142.75;100.00;78050.84;4991041;28;20026;-67
2023/04/02 04:45:38;;;;;;;11.87;6.07;;;;;;;-142.75;100.00;78042.97;4990958;28;20057;-66
2023/04/02 04:48:31;;;;;;;10.13;5.10;;;;;;;-142.75;100.00;78041.00;4992376;28;20400;-66
2023/04/02 04:51:07;;;;;;;8.63;5.70;;;;;;;-142.75;100.00;78078.44;4988286;28;20034;-67
2023/04/02 04:53:33;;;;;;;8.95;5.13;;;;;;;-142.75;100.00;78096.16;4992182;28;20026;-67
2023/04/02 04:56:03;;;;;;;10.13;6.30;;;;;;;-142.75;100.00;78074.50;4992122;28;20129;-66
2023/04/02 04:58:41;;;;;;;10.57;6.27;;;;;;;-142.75;100.00;78094.19;4992405;28;20406;-67
2023/04/02 05:01:10;;;;;;;13.37;6.67;;;;;;;-142.75;100.00;78107.97;4991854;28;20073;-66
2023/04/02 05:03:49;;;;;;;14.00;6.37;;;;;;;-142.75;100.00;78106.00;4992016;28;20081;-67
2023/04/02 05:06:40;;;;;;;14.40;6.57;;;;;;;-142.75;100.00;78109.94;4992012;28;20057;-67
2023/04/02 05:09:21;;;;;;;9.83;6.20;;;;;;;-142.75;100.00;78107.97;4992022;28;20026;-66
2023/04/02 05:11:58;;;;;;;8.37;5.33;;;;;;;-142.75;100.00;78117.81;4992140;28;20053;-67
2023/04/02 05:14:48;;;;;;;9.87;5.70;;;;;;;-142.75;100.00;78123.72;4992190;28;20026;-67
2023/04/02 05:17:29;;;;;;;12.50;6.43;;;;;;;-142.75;100.00;78139.47;4992044;28;20073;-67
2023/04/02 05:20:05;;;;;;;11.20;5.00;;;;;;;-142.75;100.00;78165.06;4992076;28;20038;-66
2023/04/02 05:22:36;;;;;;;7.20;4.67;;;;;;;-142.75;100.00;78180.81;4992056;28;20393;-66
2023/04/02 05:25:01;;;;;;;8.93;5.00;;;;;;;-142.75;100.00;78184.78;4994173;28;20335;-67
2023/04/02 05:27:48;;;;;;;7.83;4.73;;;;;;;-142.75;100.00;78198.56;4994584;28;20441;-67
2023/04/02 05:30:51;;;;;;;8.43;5.30;;;;;;;-142.75;100.00;78196.59;4995830;28;20030;-66
2023/04/02 05:33:23;;;;;;;6.17;4.30;;;;;;;-142.75;100.00;78232.03;4979761;28;20053;-66
2023/04/02 05:36:30;;;;;;;8.27;4.53;;;;;;;-142.75;100.00;78214.31;4995485;28;20022;-66
2023/04/02 05:38:57;;;;;;;10.17;5.23;;;;;;;-142.75;100.00;78202.50;4935141;29;20050;-66
2023/04/02 05:41:35;;;;;;;12.40;5.07;;;;;;;-142.75;100.00;78182.81;4935427;29;20471;-66
2023/04/02 05:44:35;;;;;;;12.53;5.73;;;;;;;-142.75;100.00;78196.59;4968974;28;20045;-67
2023/04/02 05:47:10;;;;;;;8.30;5.13;;;;;;;-142.75;100.00;78200.53;4992484;28;20046;-66
2023/04/02 05:49:45;;;;;;;9.03;5.33;;;;;;;-142.75;100.00;78186.75;4995433;28;20402;-67
2023/04/02 05:52:16;;;;;;;7.95;5.18;;;;;;;-142.75;100.00;78204.47;4994098;28;20046;-66
2023/04/02 05:54:50;;;;;;;9.07;5.03;;;;;;;-142.75;100.00;78196.59;4995235;28;20061;-66
2023/04/02 05:57:20;;;;;;;10.30;5.43;;;;;;;-142.75;100.00;78200.53;4995306;28;20025;-67
2023/04/02 05:59:53;;;;;;;10.80;5.00;;;;;;;-142.75;100.00;78249.75;4995227;28;20104;-66
2023/04/02 06:02:33;;;;;;;9.07;4.70;;;;;;;-142.75;100.00;78283.22;4994888;28;20025;-67
2023/04/02 06:05:04;;;;;;;8.50;4.33;;;;;;;-142.75;100.00;78289.13;4995152;28;20120;-67
2023/04/02 06:08:00;;;;;;;8.70;4.80;;;;;;;-142.75;100.00;78267.47;4995131;28;20549;-66
2023/04/02 06:10:31;;;;;;;9.17;5.60;;;;;;;-142.75;100.00;78277.31;4994992;28;20385;-67
2023/04/02 06:13:02;;;;;;;6.93;4.03;;;;;;;-142.75;100.00;78324.59;4994725;28;20093;-67
2023/04/02 06:15:30;;;;;;;8.70;4.73;;;;;;;-142.75;100.00;78350.19;4994841;28;20050;-66
2023/04/02 06:18:13;;;;;;;8.23;4.90;;;;;;;-142.75;100.00;78371.84;4994716;28;20036;-66
2023/04/02 06:20:38;;;;;;;6.97;3.47;;;;;;;-142.75;100.00;78413.22;4994732;28;20368;-66
2023/04/02 06:23:15;;;;;;;6.67;4.30;;;;;;;-142.75;100.00;78446.69;4994620;28;20037;-67
2023/04/02 06:25:46;;;;;;;5.93;2.83;;;;;;;-142.75;100.00;78452.59;4994729;28;20108;-67
2023/04/02 06:28:20;;;;;;;7.73;4.43;;;;;;;-142.75;100.00;78460.47;4993409;28;20022;-67
2023/04/02 06:30:46;;;;;;;6.97;4.17;;;;;;;-142.75;100.00;78468.34;4994638;28;20026;-67
2023/04/02 06:33:12;;;;;;;6.57;3.80;;;;;;;-142.75;100.00;78474.25;4994597;28;20050;-67
2023/04/02 06:35:41;;;;;;;10.33;4.47;;;;;;;-142.75;100.00;78452.59;4991998;28;20168;-66
2023/04/02 06:38:16;;;;;;;4.40;3.30;;;;;;;-142.75;100.00;78474.25;4994268;28;20045;-66
2023/04/02 06:40:58;;;;;;;5.93;4.00;;;;;;;-142.75;100.00;78484.09;4994495;28;20093;-67
2023/04/02 06:43:45;;;;;;;8.20;4.30;;;;;;;-142.75;100.00;78458.50;4993035;28;20679;-67
2023/04/02 06:46:18;;;;;;;5.47;3.42;;;;;;;-142.75;100.00;78468.34;4994191;28;20486;-66
2023/04/02 06:48:45;;;;;;;9.03;3.33;;;;;;;-142.75;100.00;78484.09;4994289;28;20445;-66
2023/04/02 06:51:15;;;;;;;5.43;3.07;;;;;;;-142.75;100.00;78501.84;4994257;28;20027;-66
2023/04/02 06:53:47;;;;;;;4.97;3.03;;;;;;;-142.75;100.00;78519.56;4994193;28;20030;-67
2023/04/02 06:56:38;;;;;;;7.80;3.17;;;;;;;-142.75;100.00;78521.53;5013631;22;20121;-64
2023/04/02 06:59:06;;;;;;;8.10;3.20;;;;;;;-142.75;100.00;78551.06;4957162;28;20074;-65
2023/04/02 07:01:36;;;;;;;6.63;3.13;;;;;;;-142.75;100.00;78541.22;4973012;28;20029;-63
2023/04/02 07:04:01;;;;;;;9.43;4.10;;;;;;;-142.75;100.00;78517.59;4974737;28;20026;-66
2023/04/02 07:06:27;;;;;;;5.83;2.77;;;;;;;-142.75;100.00;78562.88;4974374;28;20038;-66
2023/04/02 07:08:52;;;;;;;5.70;3.40;;;;;;;-142.75;100.00;78539.25;4973234;28;20027;-66
2023/04/02 07:11:20;;;;;;;5.63;2.97;;;;;;;-142.75;100.00;78562.88;4974519;28;20022;-66
2023/04/02 07:13:45;;;;;;;6.20;3.60;;;;;;;-142.75;100.00;78553.03;4974379;28;20023;-66
2023/04/02 07:16:18;;;;;;;6.43;2.93;;;;;;;-142.75;100.00;78588.50;4974206;28;20034;-63
2023/04/02 07:18:43;;;;;;;6.27;3.33;;;;;;;-142.75;100.00;78562.88;4992042;28;20029;-65
2023/04/02 07:21:09;;;;;;;5.27;3.17;;;;;;;-142.75;100.00;78596.38;4982508;28;20027;-65
2023/04/02 07:23:34;;;;;;;7.40;3.17;;;;;;;-142.75;100.00;78625.91;4972775;28;20041;-66
2023/04/02 07:26:01;;;;;;;11.33;3.27;;;;;;;-142.75;100.00;78657.41;4974105;28;20105;-65
2023/04/02 07:28:27;;;;;;;5.97;3.07;;;;;;;-142.75;100.00;78665.28;4972905;28;20114;-65
2023/04/02 07:30:53;;;;;;;6.03;2.73;;;;;;;-142.75;100.00;78625.91;4974173;28;20046;-65
2023/04/02 07:33:22;;;;;;;7.00;3.27;;;;;;;-142.75;100.00;78677.13;4973875;28;20420;-67
2023/04/02 07:35:50;;;;;;;7.03;3.20;;;;;;;-142.75;100.00;78669.25;4973836;28;20391;-65
2023/04/02 07:38:15;;;;;;;8.27;2.80;;;;;;;-142.75;100.00;78673.19;4974005;28;20101;-66
2023/04/02 07:40:41;;;;;;;7.77;3.17;;;;;;;-142.75;100.00;78671.22;4972600;28;20041;-66
2023/04/02 07:43:07;;;;;;;6.37;3.00;;;;;;;-142.75;100.00;78685.00;4972492;28;20018;-66
2023/04/02 07:45:32;;;;;;;5.63;3.10;;;;;;;-142.75;100.00;78673.19;4972470;28;20498;-66
2023/04/02 07:48:04;;;;;;;5.60;2.90;;;;;;;-142.75;100.00;78685.00;4973385;28;20102;-66
2023/04/02 07:50:29;;;;;;;7.53;4.33;;;;;;;-142.75;100.00;78685.00;4973732;28;20023;-64
2023/04/02 07:52:55;;;;;;;5.63;2.77;;;;;;;-142.75;100.00;78673.19;4973552;28;20062;-66
2023/04/02 07:55:21;;;;;;;9.13;4.20;;;;;;;-142.75;100.00;78677.13;4972206;28;20019;-66
2023/04/02 07:57:52;;;;;;;8.57;3.70;;;;;;;-142.75;100.00;78692.88;4972133;28;20031;-67
2023/04/02 08:00:18;;;;;;;5.53;3.13;;;;;;;-142.75;100.00;78718.47;4973426;28;20029;-65
2023/04/02 08:02:44;;;;;;;7.80;3.80;;;;;;;-142.75;100.00;78710.59;4973421;28;20443;-66
2023/04/02 08:05:09;;;;;;;6.00;3.37;;;;;;;-142.75;100.00;78692.88;4973432;28;20105;-66
2023/04/02 08:07:35;;;;;;;5.37;3.53;;;;;;;-142.75;100.00;78690.91;4974363;28;20109;-66
2023/04/02 08:10:02;;;;;;;13.83;3.73;;;;;;;-142.75;100.00;78692.88;4972159;28;20050;-67
2023/04/02 08:12:27;;;;;;;4.90;3.20;;;;;;;-142.75;100.00;78722.41;4973035;28;20502;-66
2023/04/02 08:14:53;;;;;;;6.23;3.10;;;;;;;-142.75;100.00;78706.66;4972151;28;20046;-64
2023/04/02 08:17:18;;;;;;;4.67;2.80;;;;;;;-142.75;100.00;78732.25;4973168;28;20027;-66
2023/04/02 08:19:43;;;;;;;6.03;3.00;;;;;;;-142.75;100.00;78685.00;4973171;28;20072;-65
2023/04/02 08:22:09;;;;;;;5.00;2.87;;;;;;;-142.75;100.00;78720.44;4978831;28;20054;-64
2023/04/02 08:24:35;;;;;;;4.97;3.23;;;;;;;-142.75;100.00;78710.59;4972710;28;20479;-65
2023/04/02 08:27:01;;;;;;;5.03;2.57;;;;;;;-142.75;100.00;78708.63;4971266;28;20037;-65
2023/04/02 08:29:30;;;;;;;4.80;3.30;;;;;;;-142.75;100.00;78681.06;4971479;28;20026;-66
2023/04/02 08:31:59;;;;;;;6.23;2.70;;;;;;;-142.75;100.00;78690.91;4972909;28;20023;-66
2023/04/02 08:34:25;;;;;;;8.93;2.70;;;;;;;-142.75;100.00;78690.91;4964958;28;20019;-66
2023/04/02 08:36:55;;;;;;;5.10;2.80;;;;;;;-142.75;100.00;78677.13;4984054;28;20030;-66
2023/04/02 08:39:21;;;;;;;6.03;2.30;;;;;;;-142.75;100.00;78665.28;4992249;28;20125;-67
2023/04/02 08:42:13;;;;;;;5.63;2.90;;;;;;;-142.75;100.00;78688.94;4990784;28;20109;-66
2023/04/02 08:44:53;;;;;;;4.20;2.70;;;;;;;-142.75;100.00;78757.88;4981604;28;20070;-66
2023/04/02 08:47:22;;;;;;;4.90;3.00;;;;;;;-142.75;100.00;78738.16;4992287;28;20092;-66
2023/04/02 08:49:57;;;;;;;5.53;2.67;;;;;;;-142.75;100.00;78744.09;4992409;28;20089;-66
2023/04/02 08:52:27;;;;;;;5.30;3.20;;;;;;;-142.75;100.00;78710.59;4986415;28;20026;-66
2023/04/02 08:54:55;;;;;;;7.93;2.90;;;;;;;-142.75;100.00;78728.31;4992331;28;20383;-65
2023/04/02 08:57:32;;;;;;;6.13;2.70;;;;;;;-142.75;100.00;78716.50;4990255;28;20030;-65
2023/04/02 09:00:15;;;;;;;8.60;2.63;;;;;;;-142.75;100.00;78686.97;4975120;28;20041;-66
2023/04/02 09:02:46;;;;;;;6.00;2.90;;;;;;;-142.75;100.00;78683.03;4986324;28;20022;-65
2023/04/02 09:05:22;;;;;;;8.03;3.10;;;;;;;-142.75;100.00;78724.38;4982588;28;20026;-65
2023/04/02 09:07:49;;;;;;;5.10;2.92;;;;;;;-142.75;100.00;78714.53;4982286;28;20097;-65
2023/04/02 09:10:16;;;;;;;9.30;3.23;;;;;;;-142.75;100.00;78704.69;4976716;28;20054;-66
2023/04/02 09:12:49;;;;;;;5.40;3.00;;;;;;;-142.75;100.00;78712.56;4975010;28;20023;-66
2023/04/02 09:15:17;;;;;;;4.63;3.03;;;;;;;-142.75;100.00;78757.88;4975096;28;20719;-65
2023/04/02 09:17:42;;;;;;;5.30;3.03;;;;;;;-142.75;100.00;78763.78;4975172;28;20038;-66
2023/04/02 09:20:18;;;;;;;9.60;3.40;;;;;;;-142.75;100.00;78724.38;4976501;28;20037;-66
2023/04/02 09:22:50;;;;;;;5.25;3.05;;;;;;;-142.75;100.00;78728.31;4976372;28;20061;-66
2023/04/02 09:25:21;;;;;;;6.67;3.10;;;;;;;-142.75;100.00;78698.78;4976470;28;20046;-69
2023/04/02 09:27:49;;;;;;;6.27;3.17;;;;;;;-142.75;100.00;78753.94;4976169;28;20027;-69
2023/04/02 09:30:28;;;;;;;5.93;2.63;;;;;;;-142.75;100.00;78783.47;4976909;28;20536;-69
2023/04/02 09:33:01;;;;;;;4.63;2.47;;;;;;;-142.75;100.00;78777.56;4976366;28;20050;-69
2023/04/02 09:35:28;;;;;;;5.07;2.70;;;;;;;-142.75;100.00;78781.50;4974877;28;20077;-69
2023/04/02 09:38:15;;;;;;;4.97;2.60;;;;;;;-142.75;100.00;78730.28;4974808;28;20076;-70
2023/04/02 09:40:47;;;;;;;8.60;2.70;;;;;;;-142.75;100.00;78771.66;4974737;28;20031;-69
2023/04/02 09:43:18;;;;;;;5.70;2.50;;;;;;;-142.75;100.00;78759.84;4976042;28;20031;-70
2023/04/02 09:45:55;;;;;;;4.87;2.67;;;;;;;-142.75;100.00;78751.97;4975896;28;20019;-69
2023/04/02 09:48:25;;;;;;;9.70;3.07;;;;;;;-142.75;100.00;78720.44;4976039;28;20045;-69
2023/04/02 09:51:05;;;;;;;5.90;2.80;;;;;;;-142.75;100.00;78736.19;4975012;28;20109;-69
2023/04/02 09:53:37;;;;;;;7.37;2.93;;;;;;;-142.75;100.00;78716.50;4995342;28;20034;-70
2023/04/02 09:56:22;;;;;;;4.93;2.50;;;;;;;-142.75;100.00;78718.47;4995123;28;20034;-68
2023/04/02 09:59:17;;;;;;;4.47;2.60;;;;;;;-142.75;100.00;78736.19;4993947;28;20068;-70
2023/04/02 10:01:54;;;;;;;4.23;2.33;;;;;;;-142.75;100.00;78722.41;4995318;28;20037;-69
2023/04/02 10:04:43;;;;;;;5.00;2.50;;;;;;;-142.75;100.00;78712.56;4993918;28;20034;-69
2023/04/02 10:07:31;;;;;;;4.93;2.90;;;;;;;-142.75;100.00;78600.31;4995186;28;20026;-69
2023/04/02 10:10:03;;;;;;;4.67;2.33;;;;;;;-142.75;100.00;78621.97;4995046;28;20497;-69
2023/04/02 10:12:39;;;;;;;3.13;2.20;;;;;;;-142.75;100.00;78570.75;4995059;28;20030;-69
2023/04/02 10:15:05;;;;;;;3.85;2.22;;;;;;;-142.75;100.00;78574.69;4994831;28;20061;-70
2023/04/02 10:17:35;;;;;;;5.00;2.30;;;;;;;-142.75;100.00;78643.63;4994870;28;20033;-69
2023/04/02 10:20:23;;;;;;;7.80;3.00;;;;;;;-142.75;100.00;78635.75;4993513;28;20073;-70
2023/04/02 10:22:49;;;;;;;5.40;3.23;;;;;;;-142.75;100.00;78614.09;4994756;28;20084;-69
2023/04/02 10:25:16;;;;;;;7.53;3.63;;;;;;;-142.75;100.00;78604.25;4994682;28;20027;-69
2023/04/02 10:28:29;;;;;;;7.00;3.20;;;;;;;-142.75;100.00;78641.66;4994678;28;20022;-69
2023/04/02 10:31:36;;;;;;;7.13;2.80;;;;;;;-142.75;100.00;78694.84;4989892;28;20443;-70
2023/04/02 10:34:11;;;;;;;4.33;2.70;;;;;;;-142.75;100.00;78726.34;4984433;28;20137;-69
2023/04/02 10:36:51;;;;;;;7.30;3.50;;;;;;;-142.75;100.00;78685.00;4993237;28;20033;-69
2023/04/02 10:39:30;;;;;;;4.07;3.30;;;;;;;-142.75;100.00;78618.03;4990235;28;20027;-68
2023/04/02 10:42:01;;;;;;;6.43;2.97;;;;;;;-142.75;100.00;78647.56;4973731;28;20034;-70
2023/04/02 10:44:51;;;;;;;6.23;3.57;;;;;;;-142.75;100.00;78551.06;4972881;28;20037;-70
2023/04/02 10:47:29;;;;;;;6.13;3.30;;;;;;;-142.75;100.00;78507.75;4973141;28;20027;-69
2023/04/02 10:50:24;;;;;;;5.33;3.83;;;;;;;-142.75;100.00;78306.88;4975878;28;20030;-66
2023/04/02 10:52:58;;;;;;;6.67;3.30;;;;;;;-142.75;100.00;78387.59;4982401;28;20019;-69
2023/04/02 10:55:29;;;;;;;7.00;3.00;;;;;;;-142.75;100.00;78336.41;4973172;28;20031;-70
2023/04/02 10:58:02;;;;;;;4.63;2.60;;;;;;;-142.75;100.00;78322.63;4981445;28;20038;-66
2023/04/02 11:00:32;;;;;;;5.57;2.50;;;;;;;-142.75;100.00;78334.44;4983254;28;20018;-66
2023/04/02 11:03:12;;;;;;;9.10;2.93;;;;;;;-142.75;100.00;78299.00;4982953;28;20386;-66
2023/04/02 11:05:43;;;;;;;6.18;2.60;;;;;;;-142.75;100.00;78249.75;4990494;28;20026;-66
2023/04/02 11:08:17;;;;;;;5.85;1.98;;;;;;;-142.75;100.00;78358.06;4993950;28;20026;-66
2023/04/02 11:10:51;;;;;;;3.00;1.75;;;;;;;-142.75;100.00;78334.44;4994249;28;20363;-66
2023/04/02 11:13:40;;;;;;;3.38;1.73;;;;;;;-142.75;100.00;78391.53;4993890;28;20037;-65
2023/04/02 11:16:06;;;;;;;8.13;2.10;;;;;;;-142.75;100.00;78235.97;4992365;28;20089;-66
2023/04/02 11:18:35;;;;;;;7.05;2.35;;;;;;;-142.75;100.00;78172.94;4992500;28;20026;-66
2023/04/02 11:21:27;;;;;;;5.50;2.13;;;;;;;-142.75;100.00;78157.19;4993638;28;20073;-66
2023/04/02 11:23:57;;;;;;;6.75;1.75;;;;;;;-142.75;100.00;78159.16;4993458;28;20030;-66
2023/04/02 11:26:42;;;;;;;4.00;1.33;;;;;;;-142.75;100.00;78188.72;4992217;28;20061;-66
2023/04/02 11:29:15;;;;;;;5.38;1.70;;;;;;;-142.75;100.00;78204.47;4992470;28;20113;-69
2023/04/02 11:31:42;;;;;;;6.15;1.85;;;;;;;-142.75;100.00;78230.06;4993572;28;20390;-69
2023/04/02 11:34:13;;;;;;;3.45;1.90;;;;;;;-142.75;100.00;78155.22;4993508;28;20022;-68
2023/04/02 11:36:51;;;;;;;5.07;1.60;;;;;;;-142.75;100.00;78119.78;4993179;28;20061;-68